Sabine Pass, TX

9:32 PM CDT on October 01, 2014 (GMT -0500)
RAWS MCFADDIN TX US | Change Station
CLOSE
Current Station
Personal Weather Station
Location: Port Arthur, TX
Elevation: 4 ft
Nearby Weather Stations

Elev 4 ft 29.71 °N, 94.12 °W | Updated 57 minutes ago

Partly Cloudy
Partly Cloudy
80 °F
Feels Like 86 °F
N
7
Wind Variable Wind from SSE
Gusts 11.0 mph

Today
High -- | Low -- °F
--% Chance of Precip.
Yesterday
High -- | Low -- °F
Precip. -- in
7:08 AM 7:01 PM
First Quarter, 53% visible
Pressure 29.85 in
Visibility 10.0 miles
Clouds Clear
Heat Index 86 °F
Dew Point 77 °F
Humidity 90%
Rainfall 0.07 in
Snow Depth Not available.
UV 0 out of 12
Pollen 8.10 out of 12
Ozone Good
PM2.5 Good
Flu Activity Not available.
METAR KBPT 020153Z 15005KT 10SM CLR 26/24 A2985 RMK AO2 SLP108 T02610244

More Conditions Fewer Conditions

Pressure 29.85 in
Visibility 10.0 miles
Clouds Clear
Heat Index 86 °F
Dew Point 77 °F
Humidity 90%
Rainfall 0.07 in
Snow Depth Not available.
UV 0 out of 12
Pollen 8.10 out of 12
Ozone Good
PM2.5 Good
Flu Activity Not available.
METAR KBPT 020153Z 15005KT 10SM CLR 26/24 A2985 RMK AO2 SLP108 T02610244

More Conditions Fewer Conditions

10-Day Weather Forecast

Almanac

Astronomy

Oct. 01, 2014 Rise Set
Actual Time 7:08 AM CDT 7:01 PM CDT
Civil Twilight 6:45 AM CDT 7:24 PM CDT
Nautical Twilight 6:17 AM CDT 7:52 PM CDT
Astronomical Twilight 5:49 AM CDT 8:20 PM CDT
Moon 1:51 PM CDT (10/1) No Moon Set
Length of Visible Light 12h 39m
Length of Day
11h 52m
Tomorrow will be 1m 46s shorter.
First Quarter, 53% of the Moon is Illuminated
Today
First Quarter
Oct 8
Full
Oct 15
Last Quarter
Oct 23
New
Oct 30
First Quarter

Today's Extremes

State Highs State Lows

Community

WunderPhotos

Upload Photos

1,758,147 photos uploaded!

WunderBlogs® & News

Nearby

Air Quality

  Air Quality AQ Index Pollutant
Yesterday Good
OZONE
Yesterday Good
PM2.5
Current Good
PM2.5
Current Good
OZONE
Wednesday Good
OZONE
Wednesday Good
PM10
Thursday Good
OZONE
Thursday Good
PM10
Friday Good
OZONE
Friday Good
PM10
Saturday Good
OZONE
Saturday Good
PM10

Snow Depth

Station Depth Elevation
No new snow has been reported.

Earthquake Activity

City Distance Mag. Time & Date
No recent earthquake activity has been reported nearby.
Minimum magnitude displayed is 2.5.

Coastal Water Temperatures

Place Temperature
Sabine Pass North, TX 82.0 °F
Port Arthur, TX 82.0 °F
Calcasieu Pass, LA 82.9 °F
Rollover Pass, TX 82.9 °F
Galveston Bay (North Jetty), TX 82.0 °F

Nearby Weather Stations